Time;durP1;ratioP1;P1;durP2;ratioP2;P2;SDS_P1;SDS_P2;PMS_P1;PMS_P2;Temp;Humidity;BMP_temperature;BMP_pressure;BME280_temperature;BME280_humidity;BME280_pressure;Samples;Min_cycle;Max_cycle;Signal;HPM_P1;HPM_P2
2024/01/12 00:04:52;;;;;;;5.00;2.50;;;;;;;-3.15;85.23;101323.59;216020;1254;75431;-73
2024/01/12 00:09:45;;;;;;;4.10;1.70;;;;;;;-3.27;84.58;101321.38;216119;1256;61239;-72
2024/01/12 00:14:38;;;;;;;4.90;2.50;;;;;;;-3.38;83.88;101331.20;215987;1254;61332;-73
2024/01/12 00:19:31;;;;;;;4.10;2.20;;;;;;;-3.46;83.43;101336.25;215844;1254;61262;-73
2024/01/12 00:24:24;;;;;;;4.30;1.80;;;;;;;-3.51;82.85;101331.67;215939;1254;61737;-73
2024/01/12 00:29:16;;;;;;;2.10;1.10;;;;;;;-3.51;82.64;101330.34;215906;1256;61333;-73
2024/01/12 00:34:09;;;;;;;3.90;2.00;;;;;;;-3.56;82.19;101332.36;216003;1254;61343;-73
2024/01/12 00:39:03;;;;;;;7.00;2.20;;;;;;;-3.65;82.07;101335.86;216023;1253;61288;-72
2024/01/12 00:43:56;;;;;;;3.30;2.00;;;;;;;-3.75;82.10;101340.08;215991;1254;65701;-73
2024/01/12 00:48:49;;;;;;;5.10;2.00;;;;;;;-3.88;82.08;101336.64;216007;1254;61240;-73
2024/01/12 00:53:43;;;;;;;5.10;2.10;;;;;;;-3.97;82.00;101342.65;215995;1253;73408;-73
2024/01/12 00:58:35;;;;;;;3.50;1.60;;;;;;;-4.08;82.25;101344.31;215976;1252;61256;-73
2024/01/12 01:03:28;;;;;;;3.40;1.80;;;;;;;-4.27;82.13;101345.38;216040;1253;63009;-73
2024/01/12 01:08:21;;;;;;;3.00;1.90;;;;;;;-4.49;81.81;101359.52;216067;1254;61314;-73
2024/01/12 01:13:14;;;;;;;3.10;1.60;;;;;;;-4.76;81.42;101364.13;215942;1255;61266;-72
2024/01/12 01:18:07;;;;;;;3.20;1.70;;;;;;;-5.01;81.86;101360.58;215881;1255;61355;-73
2024/01/12 01:23:00;;;;;;;3.50;1.50;;;;;;;-5.19;81.98;101366.54;216022;1254;71613;-73
2024/01/12 01:27:54;;;;;;;2.90;1.70;;;;;;;-5.42;81.56;101370.27;216087;1253;61326;-72
2024/01/12 01:32:49;;;;;;;3.00;1.60;;;;;;;-5.61;81.60;101380.02;215935;1253;68043;-73
2024/01/12 01:37:42;;;;;;;3.60;2.00;;;;;;;-5.82;81.32;101385.64;215902;1254;183922;-73
2024/01/12 01:42:35;;;;;;;2.70;1.70;;;;;;;-6.02;81.28;101394.15;216075;1254;73695;-73
2024/01/12 01:47:28;;;;;;;2.10;1.30;;;;;;;-6.20;80.81;101417.65;216125;1254;61252;-73
2024/01/12 01:52:25;;;;;;;5.40;2.00;;;;;;;-6.38;80.70;101424.52;216060;1254;61214;-73
2024/01/12 01:57:17;;;;;;;3.50;1.90;;;;;;;-6.52;80.60;101439.04;216037;1253;68079;-73
2024/01/12 02:02:10;;;;;;;5.10;3.00;;;;;;;-6.65;80.50;101437.59;216150;1254;61336;-73
2024/01/12 02:07:03;;;;;;;4.80;2.70;;;;;;;-6.75;80.94;101428.66;216008;1253;61266;-72
2024/01/12 02:11:56;;;;;;;6.00;2.50;;;;;;;-6.88;80.70;101436.35;215982;1253;61234;-73
2024/01/12 02:16:49;;;;;;;6.40;2.80;;;;;;;-7.04;80.27;101444.90;216019;1256;61259;-73
2024/01/12 02:21:42;;;;;;;8.30;3.30;;;;;;;-7.17;80.12;101443.59;216001;1254;61320;-73
2024/01/12 02:26:35;;;;;;;4.90;3.00;;;;;;;-7.30;79.78;101447.71;215992;1253;62202;-73
2024/01/12 02:31:29;;;;;;;5.40;3.00;;;;;;;-7.43;80.36;101448.15;216012;1254;61269;-73
2024/01/12 02:36:25;;;;;;;5.60;2.50;;;;;;;-7.46;80.69;101441.58;215909;1256;72470;-73
2024/01/12 02:41:18;;;;;;;8.70;3.90;;;;;;;-7.54;80.36;101442.78;215886;1253;61323;-73
2024/01/12 02:46:11;;;;;;;5.80;3.00;;;;;;;-7.68;79.54;101456.73;215864;1253;61263;-73
2024/01/12 02:51:04;;;;;;;8.90;5.60;;;;;;;-7.80;79.94;101454.56;216002;1254;61448;-73
2024/01/12 02:55:57;;;;;;;11.40;5.20;;;;;;;-7.90;79.70;101459.89;215945;1254;74584;-73
2024/01/12 03:00:52;;;;;;;10.30;4.40;;;;;;;-8.00;79.29;101463.58;216073;1253;61403;-73
2024/01/12 03:05:45;;;;;;;10.00;4.10;;;;;;;-8.11;79.71;101459.27;216045;1254;61243;-73
2024/01/12 03:10:38;;;;;;;10.20;4.90;;;;;;;-8.15;79.83;101459.60;216112;1253;66904;-73
2024/01/12 03:15:31;;;;;;;11.00;4.70;;;;;;;-8.22;79.43;101463.36;216134;1255;61250;-73
2024/01/12 03:20:23;;;;;;;12.60;4.80;;;;;;;-8.33;79.24;101466.90;215971;1254;61512;-73
2024/01/12 03:25:16;;;;;;;11.40;5.10;;;;;;;-8.42;79.02;101472.36;215991;1254;61391;-73
2024/01/12 03:30:10;;;;;;;14.10;5.60;;;;;;;-8.51;78.75;101469.03;215944;1254;61726;-73
2024/01/12 03:35:04;;;;;;;13.50;5.50;;;;;;;-8.59;78.64;101472.55;216205;1251;67301;-73
2024/01/12 03:39:57;;;;;;;11.60;5.10;;;;;;;-8.70;78.49;101473.38;216075;1254;61448;-73
2024/01/12 03:44:49;;;;;;;7.60;3.90;;;;;;;-8.78;78.70;101474.92;216085;1254;61291;-73
2024/01/12 03:49:43;;;;;;;11.40;5.10;;;;;;;-8.84;78.49;101473.75;216095;1254;61246;-73
2024/01/12 03:54:36;;;;;;;9.60;4.60;;;;;;;-8.94;78.38;101474.38;215965;1253;61255;-73
2024/01/12 03:59:29;;;;;;;7.50;3.80;;;;;;;-9.00;79.03;101469.40;215920;1253;61304;-73
2024/01/12 04:04:22;;;;;;;10.50;5.00;;;;;;;-9.06;78.57;101465.04;216028;1253;61244;-73
2024/01/12 04:09:16;;;;;;;9.20;4.60;;;;;;;-9.14;78.32;101462.02;216005;1253;61255;-73
2024/01/12 04:14:09;;;;;;;6.30;3.10;;;;;;;-9.24;78.11;101476.12;216031;1256;72411;-73
2024/01/12 04:19:01;;;;;;;7.20;4.20;;;;;;;-9.33;77.79;101485.79;215996;1254;61336;-73
2024/01/12 04:23:55;;;;;;;6.30;3.50;;;;;;;-9.46;77.28;101494.67;216066;1254;61430;-73
2024/01/12 04:28:48;;;;;;;7.60;3.20;;;;;;;-9.54;77.24;101496.60;216095;1253;61249;-73
2024/01/12 04:33:41;;;;;;;6.20;2.70;;;;;;;-9.59;77.47;101497.94;215959;1254;62832;-73
2024/01/12 04:38:34;;;;;;;4.00;2.50;;;;;;;-9.62;77.85;101497.30;216050;1254;70252;-73
2024/01/12 04:43:26;;;;;;;4.80;2.30;;;;;;;-9.61;78.11;101507.81;216010;1253;61285;-73
2024/01/12 04:48:19;;;;;;;6.10;2.70;;;;;;;-9.61;78.25;101507.79;216027;1253;61292;-73
2024/01/12 04:53:12;;;;;;;2.30;1.90;;;;;;;-9.63;77.67;101505.46;216014;1254;61262;-73
2024/01/12 04:58:05;;;;;;;5.90;2.80;;;;;;;-9.64;77.66;101505.30;215992;1256;61321;-73
2024/01/12 05:02:58;;;;;;;6.50;2.90;;;;;;;-9.59;78.01;101509.20;215942;1254;61246;-73
2024/01/12 05:07:51;;;;;;;7.50;2.80;;;;;;;-9.52;78.02;101513.98;215861;1253;61451;-74
2024/01/12 05:12:43;;;;;;;5.60;2.70;;;;;;;-9.45;78.39;101512.05;216075;1253;61262;-73
2024/01/12 05:17:36;;;;;;;6.00;2.90;;;;;;;-9.38;78.56;101509.17;216174;1253;61246;-73
2024/01/12 05:22:29;;;;;;;7.50;4.00;;;;;;;-9.31;78.49;101505.52;215959;1254;61326;-73
2024/01/12 05:27:22;;;;;;;8.50;3.30;;;;;;;-9.29;78.79;101501.39;215975;1256;61339;-73
2024/01/12 05:32:15;;;;;;;8.90;4.20;;;;;;;-9.30;78.88;101510.04;216055;1256;61416;-73
2024/01/12 05:37:08;;;;;;;7.20;3.40;;;;;;;-9.36;78.27;101515.71;216104;1253;61301;-74
2024/01/12 05:42:01;;;;;;;13.00;4.90;;;;;;;-9.45;78.22;101514.41;216064;1254;61375;-75
2024/01/12 05:46:54;;;;;;;8.50;3.70;;;;;;;-9.48;78.38;101509.42;215964;1256;61365;-74
2024/01/12 05:51:48;;;;;;;9.90;3.80;;;;;;;-9.49;78.45;101510.11;216124;1253;61287;-75
2024/01/12 05:56:40;;;;;;;11.30;4.40;;;;;;;-9.47;78.75;101513.17;216063;1252;61365;-74
2024/01/12 06:01:33;;;;;;;8.20;4.00;;;;;;;-9.42;79.01;101506.91;216006;1253;62875;-74
2024/01/12 06:06:26;;;;;;;7.90;3.00;;;;;;;-9.36;79.03;101506.86;216124;1254;61335;-75
2024/01/12 06:11:19;;;;;;;7.50;3.70;;;;;;;-9.33;79.21;101500.31;216237;1252;61375;-75
2024/01/12 06:16:12;;;;;;;7.10;3.50;;;;;;;-9.27;79.47;101501.23;216289;1253;61266;-74
2024/01/12 06:21:05;;;;;;;6.70;3.30;;;;;;;-9.29;78.96;101498.16;216295;1253;61282;-75
2024/01/12 06:25:58;;;;;;;8.40;3.30;;;;;;;-9.27;79.26;101502.77;216040;1252;61266;-74
2024/01/12 06:30:53;;;;;;;5.70;2.70;;;;;;;-9.24;79.30;101502.64;216180;1253;61376;-75
2024/01/12 06:35:47;;;;;;;5.90;3.30;;;;;;;-9.15;79.60;101500.12;216278;1254;73920;-74
2024/01/12 06:40:39;;;;;;;5.40;2.90;;;;;;;-9.11;79.23;101506.13;216023;1253;61259;-74
2024/01/12 06:45:32;;;;;;;6.00;3.20;;;;;;;-9.10;79.05;101509.13;216145;1253;61234;-75
2024/01/12 06:50:25;;;;;;;7.90;3.50;;;;;;;-9.04;79.28;101512.85;216295;1254;61330;-75
2024/01/12 06:55:18;;;;;;;4.50;2.90;;;;;;;-8.94;79.44;101515.02;216438;1254;61394;-75
2024/01/12 07:00:11;;;;;;;7.50;3.40;;;;;;;-8.85;79.62;101507.14;216093;1254;61253;-75
2024/01/12 07:05:04;;;;;;;6.40;3.30;;;;;;;-8.73;79.55;101512.23;216071;1254;61269;-74
2024/01/12 07:09:57;;;;;;;4.70;3.30;;;;;;;-8.58;79.69;101513.80;216484;1253;61181;-74
2024/01/12 07:14:50;;;;;;;10.20;3.90;;;;;;;-8.42;79.61;101518.19;216300;1252;61402;-74
2024/01/12 07:19:46;;;;;;;6.80;4.40;;;;;;;-8.28;79.97;101525.52;216311;1254;61169;-74
2024/01/12 07:24:39;;;;;;;7.80;3.80;;;;;;;-8.13;80.01;101527.09;216413;1252;73885;-75
2024/01/12 07:29:32;;;;;;;9.30;4.60;;;;;;;-7.97;80.09;101526.99;215809;1254;61294;-74
2024/01/12 07:34:25;;;;;;;12.70;5.90;;;;;;;-7.79;80.34;101525.50;216003;1252;61347;-74
2024/01/12 07:39:22;;;;;;;;;;;;;;;-7.61;80.35;101519.57;215961;1253;65799;-75
2024/01/12 07:44:15;;;;;;;11.50;6.60;;;;;;;-7.42;80.50;101514.57;215941;1253;61330;-74
2024/01/12 07:49:08;;;;;;;13.60;6.30;;;;;;;-7.25;80.65;101505.98;216214;1251;74344;-74
2024/01/12 07:54:01;;;;;;;17.30;8.10;;;;;;;-7.10;80.75;101502.98;216355;1253;61256;-74
2024/01/12 07:58:54;;;;;;;14.90;7.80;;;;;;;-6.93;80.67;101496.27;216101;1252;61295;-74
2024/01/12 08:03:48;;;;;;;19.70;9.70;;;;;;;-6.76;80.78;101491.16;216435;1252;66313;-75
2024/01/12 08:08:41;;;;;;;28.10;11.90;;;;;;;-6.62;80.97;101491.54;215934;1253;61218;-74
2024/01/12 08:13:35;;;;;;;22.90;14.70;;;;;;;-6.42;81.16;101488.57;215851;1253;75660;-75
2024/01/12 08:18:28;;;;;;;32.10;15.40;;;;;;;-6.16;80.94;101479.02;215696;1254;61381;-74
2024/01/12 08:23:21;;;;;;;31.80;14.90;;;;;;;-5.93;80.70;101471.56;216207;1256;61241;-76
2024/01/12 08:28:14;;;;;;;22.80;11.30;;;;;;;-5.67;80.93;101473.83;215744;1254;66111;-73
2024/01/12 08:33:07;;;;;;;22.70;10.70;;;;;;;-5.42;80.76;101468.52;216128;1252;61268;-73
2024/01/12 08:38:00;;;;;;;21.40;11.60;;;;;;;-5.21;80.56;101469.63;216097;1254;61352;-73
2024/01/12 08:42:53;;;;;;;14.10;8.60;;;;;;;-5.03;80.79;101463.02;216046;1256;61272;-73
2024/01/12 08:47:46;;;;;;;17.20;10.30;;;;;;;-4.80;80.74;101462.17;215984;1253;61352;-77
2024/01/12 08:52:39;;;;;;;23.90;12.20;;;;;;;-4.61;80.42;101462.70;215958;1253;61851;-74
2024/01/12 08:57:32;;;;;;;26.00;10.60;;;;;;;-4.40;80.45;101458.67;216038;1253;61276;-73
2024/01/12 09:02:24;;;;;;;16.60;9.40;;;;;;;-4.27;80.05;101460.16;216106;1254;61346;-75
2024/01/12 09:07:17;;;;;;;15.50;9.30;;;;;;;-4.11;79.95;101455.61;216074;1253;61709;-73
2024/01/12 09:12:11;;;;;;;17.90;9.60;;;;;;;-4.02;79.27;101455.10;216169;1253;61269;-72
2024/01/12 09:17:04;;;;;;;19.70;10.60;;;;;;;-3.88;79.54;101439.28;216002;1253;66920;-70
2024/01/12 09:21:57;;;;;;;18.00;9.10;;;;;;;-3.70;79.83;101427.81;216096;1253;61585;-70
2024/01/12 09:26:50;;;;;;;13.50;8.70;;;;;;;-3.62;79.28;101422.56;216033;1256;61233;-71
2024/01/12 09:31:43;;;;;;;18.50;8.70;;;;;;;-3.58;79.09;101422.39;215987;1254;61234;-71
2024/01/12 09:36:36;;;;;;;14.40;8.10;;;;;;;-3.53;79.03;101417.79;215806;1254;61342;-72
2024/01/12 09:41:45;;;;;;;19.80;8.70;;;;;;;-3.41;78.72;101409.89;216030;1253;61256;-73
2024/01/12 09:46:56;;;;;;;14.00;8.30;;;;;;;-3.34;78.62;101404.35;215893;1254;61333;-73
2024/01/12 09:51:50;;;;;;;14.90;7.60;;;;;;;-3.29;78.83;101396.66;215827;1254;74825;-72
2024/01/12 09:56:44;;;;;;;16.50;8.80;;;;;;;-3.20;78.50;101387.90;216111;1254;72378;-73
2024/01/12 10:01:42;;;;;;;10.00;5.60;;;;;;;-3.14;78.25;101382.12;216013;1253;61342;-73
2024/01/12 10:06:36;;;;;;;7.70;5.20;;;;;;;-3.15;77.33;101375.10;216029;1253;65941;-73
2024/01/12 10:11:30;;;;;;;7.70;5.00;;;;;;;-3.13;77.22;101375.10;215975;1253;61268;-71
2024/01/12 10:16:28;;;;;;;7.20;5.10;;;;;;;-3.07;76.72;101373.04;216006;1254;75708;-71
2024/01/12 10:21:21;;;;;;;15.00;5.90;;;;;;;-3.12;75.81;101365.55;216077;1253;72354;-71
2024/01/12 10:26:16;;;;;;;11.30;5.70;;;;;;;-3.06;75.65;101357.52;216316;1253;61271;-72
2024/01/12 10:31:09;;;;;;;20.40;7.70;;;;;;;-2.72;75.20;101360.08;215994;1253;65791;-70
2024/01/12 10:36:10;;;;;;;11.20;6.90;;;;;;;-2.63;74.86;101351.64;215966;1254;61269;-70
2024/01/12 10:41:06;;;;;;;11.60;7.40;;;;;;;-2.49;74.91;101342.20;215913;1254;75394;-71
2024/01/12 10:46:01;;;;;;;12.10;8.00;;;;;;;-2.16;74.84;101332.61;215783;1254;72352;-72
2024/01/12 10:51:01;;;;;;;19.50;8.70;;;;;;;-1.94;74.31;101331.42;216008;1254;61238;-71
2024/01/12 10:55:58;;;;;;;16.30;7.20;;;;;;;-1.95;74.27;101332.30;215974;1254;67066;-70
2024/01/12 11:00:51;;;;;;;11.50;7.00;;;;;;;-2.07;74.15;101327.83;216227;1254;61352;-71
2024/01/12 11:05:44;;;;;;;12.80;7.20;;;;;;;-1.94;73.97;101318.98;216007;1256;74513;-71
2024/01/12 11:10:46;;;;;;;11.70;7.50;;;;;;;-1.14;72.88;101303.09;216074;1252;72260;-72
2024/01/12 11:15:40;;;;;;;11.70;7.50;;;;;;;1.93;69.29;101285.59;216056;1254;61924;-70
2024/01/12 11:20:34;;;;;;;11.30;7.40;;;;;;;3.09;67.57;101266.02;215975;1254;65342;-69
2024/01/12 11:25:27;;;;;;;8.20;6.20;;;;;;;3.35;66.90;101261.34;215932;1254;61332;-71
2024/01/12 11:30:22;;;;;;;10.10;6.60;;;;;;;2.95;65.91;101265.58;215926;1254;75772;-72
2024/01/12 11:35:20;;;;;;;10.80;7.10;;;;;;;2.46;67.30;101268.13;215949;1253;71323;-71
2024/01/12 11:40:15;;;;;;;9.90;7.40;;;;;;;3.76;64.81;101252.52;216011;1254;59599;-70
2024/01/12 11:45:13;;;;;;;10.40;7.90;;;;;;;3.39;64.83;101239.59;215889;1253;66997;-71
2024/01/12 11:50:08;;;;;;;10.40;7.40;;;;;;;2.99;65.69;101229.50;215931;1256;62735;-70
2024/01/12 11:55:02;;;;;;;10.80;6.70;;;;;;;2.28;65.97;101232.81;215974;1256;74547;-70
2024/01/12 11:59:56;;;;;;;6.00;4.90;;;;;;;1.71;66.31;101225.19;215938;1254;72459;-70
2024/01/12 12:04:51;;;;;;;9.50;5.20;;;;;;;1.11;66.29;101221.65;216006;1254;61881;-71
2024/01/12 12:09:46;;;;;;;7.00;4.70;;;;;;;0.72;66.66;101205.54;216012;1254;69419;-69
2024/01/12 12:14:39;;;;;;;8.40;5.50;;;;;;;0.16;65.48;101193.70;216044;1254;61336;-69
2024/01/12 12:19:32;;;;;;;7.10;4.50;;;;;;;-0.30;66.75;101197.09;216025;1253;61263;-70
2024/01/12 12:24:25;;;;;;;7.60;5.00;;;;;;;-0.53;67.73;101179.84;216019;1254;70389;-71
2024/01/12 12:29:20;;;;;;;8.60;4.80;;;;;;;-0.65;68.20;101168.27;216034;1254;61237;-70
2024/01/12 12:34:17;;;;;;;7.00;4.80;;;;;;;-0.74;67.65;101153.70;216086;1256;67271;-71
2024/01/12 12:39:10;;;;;;;9.40;5.30;;;;;;;-0.89;67.46;101138.54;216065;1254;61278;-70
2024/01/12 12:44:04;;;;;;;14.00;6.80;;;;;;;-0.98;67.73;101120.25;216035;1253;61241;-71
2024/01/12 12:48:57;;;;;;;7.40;5.20;;;;;;;-1.07;67.96;101083.55;215999;1256;70473;-71
2024/01/12 12:53:50;;;;;;;8.50;5.10;;;;;;;-1.11;67.91;101075.41;216114;1254;61236;-70
2024/01/12 12:58:43;;;;;;;11.70;5.30;;;;;;;-1.25;67.92;101062.91;216101;1254;64821;-69
2024/01/12 13:03:36;;;;;;;9.80;6.10;;;;;;;-1.38;67.96;101061.50;216076;1254;61787;-70
2024/01/12 13:08:28;;;;;;;10.00;6.50;;;;;;;-1.52;68.39;101050.30;215976;1253;61281;-73
2024/01/12 13:13:21;;;;;;;13.70;6.80;;;;;;;-1.67;68.93;101035.80;216057;1254;61314;-72
2024/01/12 13:18:14;;;;;;;12.00;7.10;;;;;;;-1.77;69.33;101027.44;215981;1253;61264;-71
2024/01/12 13:23:07;;;;;;;11.70;6.70;;;;;;;-1.82;69.82;101026.23;215905;1254;61247;-70
2024/01/12 13:28:00;;;;;;;14.40;6.90;;;;;;;-1.93;70.04;101021.89;215954;1254;61241;-70
2024/01/12 13:32:53;;;;;;;12.50;7.00;;;;;;;-1.99;70.37;101020.23;216025;1256;61222;-71
2024/01/12 13:37:46;;;;;;;13.60;7.30;;;;;;;-2.09;70.81;101013.27;215842;1254;180523;-70
2024/01/12 13:42:40;;;;;;;10.20;6.70;;;;;;;-2.16;71.43;101005.64;215878;1253;61202;-71
2024/01/12 13:47:32;;;;;;;11.80;6.30;;;;;;;-2.20;71.34;100992.90;215983;1254;61749;-71
2024/01/12 13:52:26;;;;;;;16.80;6.80;;;;;;;-2.24;71.56;100977.67;216006;1254;61237;-69
2024/01/12 13:57:19;;;;;;;10.00;6.30;;;;;;;-2.28;72.22;100971.80;216002;1256;61249;-70
2024/01/12 14:02:12;;;;;;;14.20;6.30;;;;;;;-2.32;72.67;100962.89;215970;1254;72423;-70
2024/01/12 14:07:06;;;;;;;10.60;5.60;;;;;;;-2.38;73.35;100961.77;215892;1256;61349;-71
2024/01/12 14:12:00;;;;;;;9.30;5.90;;;;;;;-2.43;73.77;100945.45;215666;1254;65938;-70
2024/01/12 14:16:53;;;;;;;11.00;5.80;;;;;;;-2.47;74.32;100936.66;215902;1254;61240;-69
2024/01/12 14:21:46;;;;;;;10.80;6.20;;;;;;;-2.48;74.85;100922.85;215862;1254;61374;-69
2024/01/12 14:26:39;;;;;;;13.30;7.20;;;;;;;-2.49;75.18;100900.51;215553;1254;61376;-69
2024/01/12 14:31:32;;;;;;;11.70;6.60;;;;;;;-2.51;75.55;100897.67;215674;1254;61240;-68
2024/01/12 14:36:26;;;;;;;11.50;6.30;;;;;;;-2.53;76.07;100895.83;215717;1254;61288;-69
2024/01/12 14:41:20;;;;;;;9.80;6.00;;;;;;;-2.53;76.59;100884.77;215903;1256;61355;-71
2024/01/12 14:46:12;;;;;;;15.20;6.80;;;;;;;-2.53;76.78;100872.77;216036;1253;61352;-70
2024/01/12 14:51:06;;;;;;;15.90;6.70;;;;;;;-2.52;77.28;100863.34;215892;1254;61240;-71
2024/01/12 14:55:59;;;;;;;12.60;7.00;;;;;;;-2.53;77.70;100850.00;215994;1253;61244;-71
2024/01/12 15:00:52;;;;;;;9.50;5.50;;;;;;;-2.54;78.08;100843.48;215958;1254;65836;-70
2024/01/12 15:05:45;;;;;;;15.40;7.50;;;;;;;-2.54;78.77;100835.16;216008;1254;61352;-71
2024/01/12 15:10:38;;;;;;;14.20;7.00;;;;;;;-2.53;79.37;100833.88;215911;1253;61240;-70
2024/01/12 15:15:33;;;;;;;14.20;7.70;;;;;;;-2.51;79.64;100833.32;215891;1254;61226;-70
2024/01/12 15:20:26;;;;;;;15.40;7.50;;;;;;;-2.49;80.20;100838.23;215960;1254;61323;-70
2024/01/12 15:25:19;;;;;;;15.10;8.60;;;;;;;-2.47;80.55;100831.60;215979;1254;61214;-70
2024/01/12 15:30:12;;;;;;;15.30;8.90;;;;;;;-2.43;80.99;100819.48;216015;1254;61529;-70
2024/01/12 15:35:06;;;;;;;15.20;8.30;;;;;;;-2.38;81.32;100806.55;216288;1254;73758;-70
2024/01/12 15:39:59;;;;;;;19.90;10.60;;;;;;;-2.32;81.64;100804.49;216002;1255;71479;-70
2024/01/12 15:44:51;;;;;;;19.50;11.90;;;;;;;-2.22;82.34;100794.23;216469;1254;61116;-71
2024/01/12 15:49:44;;;;;;;21.90;12.10;;;;;;;-2.14;82.38;100788.22;215814;1256;61259;-70
2024/01/12 15:54:37;;;;;;;21.30;11.60;;;;;;;-2.09;82.32;100777.69;216015;1254;61256;-71
2024/01/12 15:59:30;;;;;;;27.30;13.90;;;;;;;-2.04;82.75;100771.06;216215;1256;61211;-70
2024/01/12 16:04:24;;;;;;;29.00;15.30;;;;;;;-2.00;82.74;100754.85;215907;1251;61428;-70
2024/01/12 16:10:03;;;;;;;;;;;;;;;;;;;;;
2024/01/12 16:15:07;;;;;;;;;;;;;;;-1.90;83.00;100745.63;215905;1254;68022;-71
2024/01/12 16:20:00;;;;;;;30.70;14.70;;;;;;;-1.87;83.11;100744.66;215821;1254;61262;-70
2024/01/12 16:24:53;;;;;;;29.30;16.30;;;;;;;-1.84;83.16;100740.59;215965;1255;72042;-71
2024/01/12 16:29:46;;;;;;;33.70;16.60;;;;;;;-1.82;83.42;100735.62;215886;1253;61298;-71
2024/01/12 16:34:39;;;;;;;32.70;17.90;;;;;;;-1.80;83.39;100741.41;215914;1253;61272;-71
2024/01/12 16:39:32;;;;;;;30.50;17.40;;;;;;;-1.78;83.54;100741.02;215986;1254;65611;-70
2024/01/12 16:44:27;;;;;;;31.30;16.60;;;;;;;-1.75;83.70;100730.35;215907;1254;61226;-71
2024/01/12 16:49:21;;;;;;;32.40;19.00;;;;;;;-1.72;83.81;100723.92;216190;1254;73429;-71
2024/01/12 16:54:14;;;;;;;27.10;15.40;;;;;;;-1.69;83.70;100715.30;216062;1254;72017;-71
2024/01/12 16:59:07;;;;;;;32.40;19.20;;;;;;;-1.67;84.73;100703.37;215977;1254;61264;-71
2024/01/12 17:04:00;;;;;;;32.80;19.20;;;;;;;-1.65;85.02;100701.77;215896;1254;61349;-72
2024/01/12 17:08:53;;;;;;;34.50;18.90;;;;;;;-1.62;85.12;100690.90;216037;1257;61342;-71
2024/01/12 17:13:46;;;;;;;32.00;19.80;;;;;;;-1.59;84.88;100691.60;216058;1254;61272;-71
2024/01/12 17:18:38;;;;;;;34.70;18.20;;;;;;;-1.57;84.92;100684.67;215963;1257;61340;-72
2024/01/12 17:23:32;;;;;;;34.90;19.80;;;;;;;-1.53;84.83;100694.55;216099;1254;61240;-71
2024/01/12 17:28:25;;;;;;;35.60;17.90;;;;;;;-1.49;84.50;100690.38;216097;1254;65313;-71
2024/01/12 17:33:18;;;;;;;28.50;18.10;;;;;;;-1.46;84.49;100679.16;215973;1256;61278;-71
2024/01/12 17:38:11;;;;;;;32.70;20.70;;;;;;;-1.44;84.69;100677.98;216145;1254;72361;-71
2024/01/12 17:43:04;;;;;;;38.00;22.00;;;;;;;-1.41;84.78;100664.23;216065;1254;61387;-71
2024/01/12 17:47:57;;;;;;;38.90;21.00;;;;;;;-1.39;84.84;100652.14;216085;1254;61768;-72
2024/01/12 17:52:50;;;;;;;36.90;20.20;;;;;;;-1.36;84.62;100642.27;216076;1254;61253;-71
2024/01/12 17:57:42;;;;;;;35.20;22.10;;;;;;;-1.33;84.89;100622.20;216059;1254;61233;-72
2024/01/12 18:02:35;;;;;;;37.60;22.70;;;;;;;-1.30;84.78;100602.64;216121;1254;61240;-72
2024/01/12 18:07:28;;;;;;;36.10;20.00;;;;;;;-1.28;84.97;100594.11;216067;1254;61326;-71
2024/01/12 18:12:22;;;;;;;36.20;20.60;;;;;;;-1.26;85.16;100589.66;215838;1254;61264;-71
2024/01/12 18:17:15;;;;;;;37.40;20.70;;;;;;;-1.23;85.24;100590.85;216033;1254;66785;-71
2024/01/12 18:22:08;;;;;;;34.00;20.40;;;;;;;-1.21;85.00;100585.40;216031;1254;62012;-71
2024/01/12 18:27:01;;;;;;;30.70;19.70;;;;;;;-1.18;85.25;100584.19;216149;1254;73570;-71
2024/01/12 18:31:53;;;;;;;33.90;20.80;;;;;;;-1.17;85.08;100567.77;216050;1255;61307;-72
2024/01/12 18:36:46;;;;;;;33.60;21.80;;;;;;;-1.16;85.01;100561.87;216064;1254;61256;-72
2024/01/12 18:41:39;;;;;;;38.10;21.50;;;;;;;-1.14;85.26;100560.27;216046;1255;61240;-72
2024/01/12 18:46:32;;;;;;;30.90;20.20;;;;;;;-1.14;85.33;100554.30;215978;1257;62010;-72
2024/01/12 18:51:27;;;;;;;33.80;20.00;;;;;;;-1.13;85.23;100551.32;216136;1254;73665;-72
2024/01/12 18:56:20;;;;;;;35.10;21.10;;;;;;;-1.13;85.63;100550.32;216084;1256;61266;-72
2024/01/12 19:01:13;;;;;;;33.70;20.00;;;;;;;-1.11;85.51;100534.91;216076;1254;61306;-73
2024/01/12 19:06:06;;;;;;;35.30;21.90;;;;;;;-1.12;85.68;100534.02;216060;1254;61332;-73
2024/01/12 19:10:59;;;;;;;34.20;20.90;;;;;;;-1.12;85.78;100531.27;216075;1254;61355;-72
2024/01/12 19:15:52;;;;;;;36.20;21.30;;;;;;;-1.12;85.92;100523.80;216231;1254;61343;-71
2024/01/12 19:20:45;;;;;;;29.50;18.90;;;;;;;-1.12;85.63;100519.41;216103;1254;61281;-71
2024/01/12 19:25:38;;;;;;;37.10;21.30;;;;;;;-1.11;85.74;100518.64;216075;1254;61368;-71
2024/01/12 19:30:35;;;;;;;28.60;18.30;;;;;;;-1.10;85.86;100517.33;216020;1253;61225;-71
2024/01/12 19:35:27;;;;;;;30.90;17.40;;;;;;;-1.08;85.73;100511.96;216050;1256;61323;-72
2024/01/12 19:40:20;;;;;;;33.80;19.90;;;;;;;-1.08;85.93;100515.23;216073;1254;61313;-72
2024/01/12 19:45:13;;;;;;;30.60;18.40;;;;;;;-1.06;86.03;100514.99;215923;1254;61300;-71
2024/01/12 19:50:07;;;;;;;30.10;19.50;;;;;;;-1.04;86.06;100513.61;215957;1254;61291;-71
2024/01/12 19:55:03;;;;;;;34.80;20.00;;;;;;;-1.02;86.09;100519.50;216382;1254;68724;-71
2024/01/12 19:59:56;;;;;;;29.60;18.70;;;;;;;-1.01;85.96;100523.17;216118;1257;61269;-72
2024/01/12 20:04:49;;;;;;;27.90;18.10;;;;;;;-0.99;86.17;100525.17;216085;1254;61247;-71
2024/01/12 20:09:42;;;;;;;32.20;18.60;;;;;;;-0.97;86.02;100530.02;216140;1254;61959;-72
2024/01/12 20:14:36;;;;;;;30.10;19.30;;;;;;;-0.95;86.18;100524.20;216076;1254;61250;-72
2024/01/12 20:19:29;;;;;;;25.90;16.30;;;;;;;-0.93;86.27;100520.02;216182;1254;67179;-71
2024/01/12 20:24:22;;;;;;;30.80;19.20;;;;;;;-0.92;86.30;100527.61;216184;1253;61336;-71
2024/01/12 20:29:15;;;;;;;27.90;19.30;;;;;;;-0.90;86.29;100526.36;216077;1254;61876;-72
2024/01/12 20:34:08;;;;;;;26.70;17.70;;;;;;;-0.88;86.02;100531.58;216090;1252;61298;-71
2024/01/12 20:39:01;;;;;;;27.30;18.60;;;;;;;-0.86;86.19;100534.61;216057;1254;61317;-73
2024/01/12 20:43:54;;;;;;;24.90;16.30;;;;;;;-0.84;86.00;100529.08;216310;1254;61164;-71
2024/01/12 20:48:47;;;;;;;25.20;17.10;;;;;;;-0.81;86.35;100521.09;216183;1253;61267;-71
2024/01/12 20:53:40;;;;;;;24.50;14.80;;;;;;;-0.79;86.48;100518.88;216169;1254;64531;-73
2024/01/12 20:58:33;;;;;;;22.60;14.00;;;;;;;-0.75;86.32;100519.05;216183;1254;61266;-72
2024/01/12 21:03:25;;;;;;;24.80;15.40;;;;;;;-0.72;86.31;100510.20;216129;1254;61285;-72
2024/01/12 21:08:19;;;;;;;24.70;16.20;;;;;;;-0.69;86.53;100505.27;216150;1254;61304;-72
2024/01/12 21:13:11;;;;;;;21.70;13.80;;;;;;;-0.67;86.44;100497.91;216118;1253;61339;-72
2024/01/12 21:18:04;;;;;;;24.10;15.90;;;;;;;-0.63;86.21;100491.86;216076;1253;61236;-72
2024/01/12 21:22:59;;;;;;;22.20;15.70;;;;;;;-0.61;86.20;100494.33;216108;1256;71492;-72
2024/01/12 21:27:57;;;;;;;25.60;16.30;;;;;;;-0.60;86.11;100497.13;216103;1254;61897;-73
2024/01/12 21:32:50;;;;;;;25.10;16.50;;;;;;;-0.59;86.26;100496.01;216141;1253;66737;-72
2024/01/12 21:37:43;;;;;;;26.10;15.80;;;;;;;-0.57;86.41;100486.41;216210;1254;61242;-72
2024/01/12 21:42:37;;;;;;;23.80;16.00;;;;;;;-0.56;86.27;100477.61;216124;1254;74601;-72
2024/01/12 21:47:30;;;;;;;24.40;16.30;;;;;;;-0.56;86.41;100477.45;215764;1255;71603;-72
2024/01/12 21:52:23;;;;;;;21.70;14.00;;;;;;;-0.54;86.28;100474.16;216129;1254;61233;-73
2024/01/12 21:57:16;;;;;;;24.50;16.10;;;;;;;-0.52;86.36;100469.32;216138;1254;61319;-73
2024/01/12 22:02:10;;;;;;;23.90;14.50;;;;;;;-0.51;86.30;100471.43;216144;1254;61929;-72
2024/01/12 22:07:03;;;;;;;24.40;14.70;;;;;;;-0.49;86.33;100469.52;216182;1254;73926;-72
2024/01/12 22:11:55;;;;;;;19.70;11.50;;;;;;;-0.48;86.52;100459.70;216131;1253;61355;-72
2024/01/12 22:16:48;;;;;;;25.10;15.50;;;;;;;-0.48;86.43;100447.61;216136;1251;61253;-72
2024/01/12 22:21:47;;;;;;;28.20;17.20;;;;;;;-0.47;86.71;100450.23;216161;1254;61265;-73